Vancouver, Canada
Current Conditions -  °F | °C
As of 11:00 AM on Thursday 30 Oct 2014 (Local Time) from CYVR Reporting Station
Light Rain Light Rain  
Wind Chill: 12°   Ceiling: 5400
Heat Index: 12°   Visibility: 15mi
Dew Point: 10°   Wind: 9mph
Humidity: 88%   Direction: 120°ESE
Pressure: 29.82"   Gusts: NA
Location:  49.26°N, 123.11°W
Report Text: CYVR 301800Z 12008KT 060V130 15SM -RA FEW044 OVC054 12/10 A2982 RMK SC2SC6 VIS N 12SM SLP099
Loading
Personal Weather Stations






























Interactive Weather Map
Tropical Storm Tracking
New forecast layout! Learn more

10-Day Weather Forecast

Advertisements
Track Severe Weather on mobile